sensor_id;sensor_type;location;lat;lon;timestamp;P1;durP1;ratioP1;P2;durP2;ratioP2
20000;SDS011;10161;41.188;-8.642;2023-02-19T00:01:00;21.50;;;16.93;;
20000;SDS011;10161;41.188;-8.642;2023-02-19T00:03:31;22.10;;;15.93;;
20000;SDS011;10161;41.188;-8.642;2023-02-19T00:06:00;21.90;;;16.40;;
20000;SDS011;10161;41.188;-8.642;2023-02-19T00:08:28;22.70;;;16.07;;
20000;SDS011;10161;41.188;-8.642;2023-02-19T00:10:58;23.30;;;16.00;;
20000;SDS011;10161;41.188;-8.642;2023-02-19T00:13:27;21.10;;;16.10;;
20000;SDS011;10161;41.188;-8.642;2023-02-19T00:15:55;22.30;;;16.13;;
20000;SDS011;10161;41.188;-8.642;2023-02-19T00:18:22;22.50;;;17.30;;
20000;SDS011;10161;41.188;-8.642;2023-02-19T00:20:51;24.60;;;16.20;;
20000;SDS011;10161;41.188;-8.642;2023-02-19T00:23:22;23.57;;;16.03;;
20000;SDS011;10161;41.188;-8.642;2023-02-19T00:25:50;21.13;;;16.60;;
20000;SDS011;10161;41.188;-8.642;2023-02-19T00:28:17;20.30;;;15.47;;
20000;SDS011;10161;41.188;-8.642;2023-02-19T00:30:46;22.00;;;17.17;;
20000;SDS011;10161;41.188;-8.642;2023-02-19T00:33:14;24.00;;;16.53;;
20000;SDS011;10161;41.188;-8.642;2023-02-19T00:35:41;25.03;;;16.77;;
20000;SDS011;10161;41.188;-8.642;2023-02-19T00:38:09;25.13;;;18.27;;
20000;SDS011;10161;41.188;-8.642;2023-02-19T00:40:36;24.77;;;19.53;;
20000;SDS011;10161;41.188;-8.642;2023-02-19T00:43:04;26.13;;;17.80;;
20000;SDS011;10161;41.188;-8.642;2023-02-19T00:45:31;25.73;;;18.03;;
20000;SDS011;10161;41.188;-8.642;2023-02-19T00:48:01;21.27;;;17.17;;
20000;SDS011;10161;41.188;-8.642;2023-02-19T00:50:28;27.47;;;16.97;;
20000;SDS011;10161;41.188;-8.642;2023-02-19T00:52:55;23.13;;;17.40;;
20000;SDS011;10161;41.188;-8.642;2023-02-19T00:55:23;25.90;;;19.60;;
20000;SDS011;10161;41.188;-8.642;2023-02-19T00:57:50;26.70;;;19.30;;
20000;SDS011;10161;41.188;-8.642;2023-02-19T01:00:17;27.57;;;19.70;;
20000;SDS011;10161;41.188;-8.642;2023-02-19T01:02:44;27.93;;;20.50;;
20000;SDS011;10161;41.188;-8.642;2023-02-19T01:05:13;33.10;;;22.57;;
20000;SDS011;10161;41.188;-8.642;2023-02-19T01:07:40;23.93;;;19.33;;
20000;SDS011;10161;41.188;-8.642;2023-02-19T01:10:08;26.67;;;19.60;;
20000;SDS011;10161;41.188;-8.642;2023-02-19T01:12:35;29.90;;;20.97;;
20000;SDS011;10161;41.188;-8.642;2023-02-19T01:15:03;33.60;;;21.00;;
20000;SDS011;10161;41.188;-8.642;2023-02-19T01:17:30;32.03;;;21.70;;
20000;SDS011;10161;41.188;-8.642;2023-02-19T01:19:57;32.77;;;20.70;;
20000;SDS011;10161;41.188;-8.642;2023-02-19T01:22:26;31.70;;;21.93;;
20000;SDS011;10161;41.188;-8.642;2023-02-19T01:24:53;26.77;;;19.80;;
20000;SDS011;10161;41.188;-8.642;2023-02-19T01:27:20;26.70;;;19.27;;
20000;SDS011;10161;41.188;-8.642;2023-02-19T01:29:47;29.33;;;20.73;;
20000;SDS011;10161;41.188;-8.642;2023-02-19T01:32:14;24.00;;;19.47;;
20000;SDS011;10161;41.188;-8.642;2023-02-19T01:34:41;25.20;;;18.50;;
20000;SDS011;10161;41.188;-8.642;2023-02-19T01:37:08;23.30;;;17.10;;
20000;SDS011;10161;41.188;-8.642;2023-02-19T01:39:38;24.07;;;17.13;;
20000;SDS011;10161;41.188;-8.642;2023-02-19T01:42:09;23.93;;;16.93;;
20000;SDS011;10161;41.188;-8.642;2023-02-19T01:47:39;22.13;;;15.60;;
20000;SDS011;10161;41.188;-8.642;2023-02-19T01:50:06;20.73;;;16.07;;
20000;SDS011;10161;41.188;-8.642;2023-02-19T01:52:34;28.00;;;16.87;;
20000;SDS011;10161;41.188;-8.642;2023-02-19T01:55:04;21.63;;;14.20;;
20000;SDS011;10161;41.188;-8.642;2023-02-19T01:57:34;21.97;;;14.53;;
20000;SDS011;10161;41.188;-8.642;2023-02-19T02:00:04;19.80;;;15.13;;
20000;SDS011;10161;41.188;-8.642;2023-02-19T02:02:34;19.90;;;14.93;;
20000;SDS011;10161;41.188;-8.642;2023-02-19T02:05:01;25.70;;;15.97;;
20000;SDS011;10161;41.188;-8.642;2023-02-19T02:07:28;27.57;;;15.60;;
20000;SDS011;10161;41.188;-8.642;2023-02-19T02:10:14;19.77;;;15.67;;
20000;SDS011;10161;41.188;-8.642;2023-02-19T02:12:47;22.73;;;14.70;;
20000;SDS011;10161;41.188;-8.642;2023-02-19T02:15:15;17.87;;;13.27;;
20000;SDS011;10161;41.188;-8.642;2023-02-19T02:17:45;20.90;;;12.50;;
20000;SDS011;10161;41.188;-8.642;2023-02-19T02:20:26;15.60;;;12.10;;
20000;SDS011;10161;41.188;-8.642;2023-02-19T02:23:13;21.10;;;12.93;;
20000;SDS011;10161;41.188;-8.642;2023-02-19T02:32:02;16.47;;;13.20;;
20000;SDS011;10161;41.188;-8.642;2023-02-19T02:34:32;19.80;;;13.13;;
20000;SDS011;10161;41.188;-8.642;2023-02-19T02:37:01;16.83;;;14.13;;
20000;SDS011;10161;41.188;-8.642;2023-02-19T02:39:32;20.30;;;13.37;;
20000;SDS011;10161;41.188;-8.642;2023-02-19T02:41:59;18.60;;;14.03;;
20000;SDS011;10161;41.188;-8.642;2023-02-19T02:44:44;20.47;;;14.33;;
20000;SDS011;10161;41.188;-8.642;2023-02-19T02:47:34;20.87;;;15.03;;
20000;SDS011;10161;41.188;-8.642;2023-02-19T02:50:10;25.10;;;14.87;;
20000;SDS011;10161;41.188;-8.642;2023-02-19T02:52:40;22.80;;;16.47;;
20000;SDS011;10161;41.188;-8.642;2023-02-19T02:55:26;22.93;;;15.73;;
20000;SDS011;10161;41.188;-8.642;2023-02-19T02:57:55;19.37;;;15.57;;
20000;SDS011;10161;41.188;-8.642;2023-02-19T03:00:22;21.60;;;15.80;;
20000;SDS011;10161;41.188;-8.642;2023-02-19T03:03:12;21.03;;;14.10;;
20000;SDS011;10161;41.188;-8.642;2023-02-19T03:05:38;18.77;;;13.73;;
20000;SDS011;10161;41.188;-8.642;2023-02-19T03:08:20;22.77;;;14.87;;
20000;SDS011;10161;41.188;-8.642;2023-02-19T03:10:49;18.53;;;13.10;;
20000;SDS011;10161;41.188;-8.642;2023-02-19T03:13:18;19.27;;;13.70;;
20000;SDS011;10161;41.188;-8.642;2023-02-19T03:16:05;17.87;;;14.00;;
20000;SDS011;10161;41.188;-8.642;2023-02-19T03:18:54;17.93;;;13.00;;
20000;SDS011;10161;41.188;-8.642;2023-02-19T03:21:41;20.67;;;12.50;;
20000;SDS011;10161;41.188;-8.642;2023-02-19T03:24:10;22.20;;;13.00;;
20000;SDS011;10161;41.188;-8.642;2023-02-19T03:26:55;15.40;;;11.50;;
20000;SDS011;10161;41.188;-8.642;2023-02-19T03:29:25;18.10;;;11.70;;
20000;SDS011;10161;41.188;-8.642;2023-02-19T03:31:56;18.00;;;11.23;;
20000;SDS011;10161;41.188;-8.642;2023-02-19T03:34:27;18.40;;;11.80;;
20000;SDS011;10161;41.188;-8.642;2023-02-19T03:36:57;15.83;;;10.80;;
20000;SDS011;10161;41.188;-8.642;2023-02-19T03:39:29;15.50;;;11.20;;
20000;SDS011;10161;41.188;-8.642;2023-02-19T03:41:57;18.23;;;10.40;;
20000;SDS011;10161;41.188;-8.642;2023-02-19T03:44:31;19.33;;;12.60;;
20000;SDS011;10161;41.188;-8.642;2023-02-19T03:47:05;13.57;;;11.10;;
20000;SDS011;10161;41.188;-8.642;2023-02-19T03:49:40;13.97;;;10.90;;
20000;SDS011;10161;41.188;-8.642;2023-02-19T03:52:11;13.77;;;10.47;;
20000;SDS011;10161;41.188;-8.642;2023-02-19T03:54:45;15.17;;;10.43;;
20000;SDS011;10161;41.188;-8.642;2023-02-19T03:57:15;15.10;;;10.67;;
20000;SDS011;10161;41.188;-8.642;2023-02-19T03:59:46;13.77;;;10.93;;
20000;SDS011;10161;41.188;-8.642;2023-02-19T04:02:16;14.23;;;11.20;;
20000;SDS011;10161;41.188;-8.642;2023-02-19T04:04:48;16.63;;;12.33;;
20000;SDS011;10161;41.188;-8.642;2023-02-19T04:07:17;16.80;;;11.10;;
20000;SDS011;10161;41.188;-8.642;2023-02-19T04:09:45;14.30;;;10.50;;
20000;SDS011;10161;41.188;-8.642;2023-02-19T04:12:13;13.37;;;10.70;;
20000;SDS011;10161;41.188;-8.642;2023-02-19T04:14:42;14.23;;;10.30;;
20000;SDS011;10161;41.188;-8.642;2023-02-19T04:17:12;14.60;;;10.80;;
20000;SDS011;10161;41.188;-8.642;2023-02-19T04:19:42;13.50;;;10.97;;
20000;SDS011;10161;41.188;-8.642;2023-02-19T04:22:13;14.00;;;11.70;;
20000;SDS011;10161;41.188;-8.642;2023-02-19T04:24:42;15.27;;;11.60;;
20000;SDS011;10161;41.188;-8.642;2023-02-19T04:27:12;15.90;;;11.63;;
20000;SDS011;10161;41.188;-8.642;2023-02-19T04:29:39;14.10;;;11.03;;
20000;SDS011;10161;41.188;-8.642;2023-02-19T04:32:08;16.63;;;10.93;;
20000;SDS011;10161;41.188;-8.642;2023-02-19T04:34:35;16.43;;;10.47;;
20000;SDS011;10161;41.188;-8.642;2023-02-19T04:37:02;13.43;;;9.07;;
20000;SDS011;10161;41.188;-8.642;2023-02-19T04:39:31;11.00;;;8.53;;
20000;SDS011;10161;41.188;-8.642;2023-02-19T04:41:58;14.00;;;9.10;;
20000;SDS011;10161;41.188;-8.642;2023-02-19T04:44:27;15.23;;;9.27;;
20000;SDS011;10161;41.188;-8.642;2023-02-19T04:46:54;9.80;;;8.60;;
20000;SDS011;10161;41.188;-8.642;2023-02-19T04:49:21;11.03;;;8.97;;
20000;SDS011;10161;41.188;-8.642;2023-02-19T04:51:48;12.40;;;8.80;;
20000;SDS011;10161;41.188;-8.642;2023-02-19T04:54:15;12.20;;;8.17;;
20000;SDS011;10161;41.188;-8.642;2023-02-19T04:56:44;10.57;;;8.23;;
20000;SDS011;10161;41.188;-8.642;2023-02-19T04:59:11;11.50;;;8.03;;
20000;SDS011;10161;41.188;-8.642;2023-02-19T05:01:38;13.87;;;9.77;;
20000;SDS011;10161;41.188;-8.642;2023-02-19T05:04:06;19.63;;;10.23;;
20000;SDS011;10161;41.188;-8.642;2023-02-19T05:06:33;19.73;;;11.37;;
20000;SDS011;10161;41.188;-8.642;2023-02-19T05:09:01;11.87;;;9.57;;
20000;SDS011;10161;41.188;-8.642;2023-02-19T05:11:29;12.10;;;9.60;;
20000;SDS011;10161;41.188;-8.642;2023-02-19T05:13:57;13.97;;;9.10;;
20000;SDS011;10161;41.188;-8.642;2023-02-19T05:16:24;12.63;;;8.40;;
20000;SDS011;10161;41.188;-8.642;2023-02-19T05:18:51;15.73;;;9.30;;
20000;SDS011;10161;41.188;-8.642;2023-02-19T05:21:19;13.30;;;8.93;;
20000;SDS011;10161;41.188;-8.642;2023-02-19T05:23:46;13.33;;;9.13;;
20000;SDS011;10161;41.188;-8.642;2023-02-19T05:26:14;17.37;;;9.43;;
20000;SDS011;10161;41.188;-8.642;2023-02-19T05:28:42;12.90;;;9.00;;
20000;SDS011;10161;41.188;-8.642;2023-02-19T05:31:11;15.03;;;9.20;;
20000;SDS011;10161;41.188;-8.642;2023-02-19T05:33:38;12.87;;;9.50;;
20000;SDS011;10161;41.188;-8.642;2023-02-19T05:36:07;15.60;;;9.53;;
20000;SDS011;10161;41.188;-8.642;2023-02-19T05:38:36;14.17;;;10.40;;
20000;SDS011;10161;41.188;-8.642;2023-02-19T05:41:07;19.97;;;11.33;;
20000;SDS011;10161;41.188;-8.642;2023-02-19T05:43:35;14.70;;;10.13;;
20000;SDS011;10161;41.188;-8.642;2023-02-19T05:46:02;18.93;;;10.60;;
20000;SDS011;10161;41.188;-8.642;2023-02-19T05:48:32;16.07;;;9.40;;
20000;SDS011;10161;41.188;-8.642;2023-02-19T05:51:02;13.03;;;10.30;;
20000;SDS011;10161;41.188;-8.642;2023-02-19T05:53:30;13.83;;;10.90;;
20000;SDS011;10161;41.188;-8.642;2023-02-19T05:55:57;16.90;;;10.40;;
20000;SDS011;10161;41.188;-8.642;2023-02-19T05:58:25;14.20;;;9.57;;
20000;SDS011;10161;41.188;-8.642;2023-02-19T06:00:52;13.80;;;9.47;;
20000;SDS011;10161;41.188;-8.642;2023-02-19T06:03:20;14.27;;;8.70;;
20000;SDS011;10161;41.188;-8.642;2023-02-19T06:05:49;13.27;;;9.40;;
20000;SDS011;10161;41.188;-8.642;2023-02-19T06:08:16;11.83;;;8.43;;
20000;SDS011;10161;41.188;-8.642;2023-02-19T06:10:43;11.40;;;8.30;;
20000;SDS011;10161;41.188;-8.642;2023-02-19T06:13:10;11.87;;;8.30;;
20000;SDS011;10161;41.188;-8.642;2023-02-19T06:15:37;12.77;;;8.20;;
20000;SDS011;10161;41.188;-8.642;2023-02-19T06:18:04;10.63;;;8.20;;
20000;SDS011;10161;41.188;-8.642;2023-02-19T06:20:32;11.70;;;7.87;;
20000;SDS011;10161;41.188;-8.642;2023-02-19T06:23:04;10.77;;;8.60;;
20000;SDS011;10161;41.188;-8.642;2023-02-19T06:25:31;16.40;;;8.70;;
20000;SDS011;10161;41.188;-8.642;2023-02-19T06:27:58;20.07;;;8.80;;
20000;SDS011;10161;41.188;-8.642;2023-02-19T06:30:25;11.97;;;9.03;;
20000;SDS011;10161;41.188;-8.642;2023-02-19T06:32:52;13.60;;;9.20;;
20000;SDS011;10161;41.188;-8.642;2023-02-19T06:35:19;12.93;;;7.97;;
20000;SDS011;10161;41.188;-8.642;2023-02-19T06:37:48;11.63;;;8.87;;
20000;SDS011;10161;41.188;-8.642;2023-02-19T06:40:17;18.20;;;11.33;;
20000;SDS011;10161;41.188;-8.642;2023-02-19T06:42:45;13.40;;;10.00;;
20000;SDS011;10161;41.188;-8.642;2023-02-19T06:45:12;14.10;;;8.80;;
20000;SDS011;10161;41.188;-8.642;2023-02-19T06:47:39;12.53;;;9.10;;
20000;SDS011;10161;41.188;-8.642;2023-02-19T06:50:06;17.83;;;9.63;;
20000;SDS011;10161;41.188;-8.642;2023-02-19T06:52:33;17.60;;;10.77;;
20000;SDS011;10161;41.188;-8.642;2023-02-19T06:55:00;11.90;;;9.70;;
20000;SDS011;10161;41.188;-8.642;2023-02-19T06:57:32;14.53;;;9.17;;
20000;SDS011;10161;41.188;-8.642;2023-02-19T06:59:59;10.87;;;9.77;;
20000;SDS011;10161;41.188;-8.642;2023-02-19T07:02:26;13.13;;;9.77;;
20000;SDS011;10161;41.188;-8.642;2023-02-19T07:04:54;14.17;;;9.90;;
20000;SDS011;10161;41.188;-8.642;2023-02-19T07:07:21;14.70;;;9.17;;
20000;SDS011;10161;41.188;-8.642;2023-02-19T07:09:47;13.73;;;9.23;;
20000;SDS011;10161;41.188;-8.642;2023-02-19T07:12:15;14.33;;;9.63;;
20000;SDS011;10161;41.188;-8.642;2023-02-19T07:14:44;14.27;;;9.10;;
20000;SDS011;10161;41.188;-8.642;2023-02-19T07:17:11;12.80;;;8.73;;
20000;SDS011;10161;41.188;-8.642;2023-02-19T07:19:38;12.40;;;8.73;;
20000;SDS011;10161;41.188;-8.642;2023-02-19T07:22:05;15.30;;;9.80;;
20000;SDS011;10161;41.188;-8.642;2023-02-19T07:24:32;17.23;;;9.97;;
20000;SDS011;10161;41.188;-8.642;2023-02-19T07:26:59;17.07;;;9.20;;
20000;SDS011;10161;41.188;-8.642;2023-02-19T07:29:28;13.80;;;8.87;;
20000;SDS011;10161;41.188;-8.642;2023-02-19T07:31:58;13.60;;;9.03;;
20000;SDS011;10161;41.188;-8.642;2023-02-19T07:34:25;12.87;;;8.80;;
20000;SDS011;10161;41.188;-8.642;2023-02-19T07:36:52;13.43;;;8.73;;
20000;SDS011;10161;41.188;-8.642;2023-02-19T07:39:19;13.57;;;8.60;;
20000;SDS011;10161;41.188;-8.642;2023-02-19T07:41:46;11.20;;;8.30;;
20000;SDS011;10161;41.188;-8.642;2023-02-19T07:44:13;16.27;;;9.30;;
20000;SDS011;10161;41.188;-8.642;2023-02-19T07:46:42;11.30;;;7.93;;
20000;SDS011;10161;41.188;-8.642;2023-02-19T07:49:11;16.83;;;8.43;;
20000;SDS011;10161;41.188;-8.642;2023-02-19T07:51:38;24.13;;;8.60;;
20000;SDS011;10161;41.188;-8.642;2023-02-19T07:54:05;10.70;;;8.57;;
20000;SDS011;10161;41.188;-8.642;2023-02-19T07:56:32;12.87;;;8.10;;
20000;SDS011;10161;41.188;-8.642;2023-02-19T07:58:59;10.17;;;7.73;;
20000;SDS011;10161;41.188;-8.642;2023-02-19T08:01:27;15.40;;;8.43;;
20000;SDS011;10161;41.188;-8.642;2023-02-19T08:04:09;11.67;;;8.60;;
20000;SDS011;10161;41.188;-8.642;2023-02-19T08:06:38;10.80;;;7.93;;
20000;SDS011;10161;41.188;-8.642;2023-02-19T08:09:06;9.63;;;6.90;;
20000;SDS011;10161;41.188;-8.642;2023-02-19T08:11:33;12.13;;;7.23;;
20000;SDS011;10161;41.188;-8.642;2023-02-19T08:14:18;12.40;;;7.80;;
20000;SDS011;10161;41.188;-8.642;2023-02-19T08:16:48;9.40;;;6.80;;
20000;SDS011;10161;41.188;-8.642;2023-02-19T08:19:17;11.67;;;7.87;;
20000;SDS011;10161;41.188;-8.642;2023-02-19T08:21:46;10.00;;;7.20;;
20000;SDS011;10161;41.188;-8.642;2023-02-19T08:24:14;11.50;;;6.90;;
20000;SDS011;10161;41.188;-8.642;2023-02-19T08:26:42;8.90;;;7.40;;
20000;SDS011;10161;41.188;-8.642;2023-02-19T08:29:09;11.47;;;7.50;;
20000;SDS011;10161;41.188;-8.642;2023-02-19T08:31:36;9.00;;;6.90;;
20000;SDS011;10161;41.188;-8.642;2023-02-19T08:34:03;7.93;;;7.10;;
20000;SDS011;10161;41.188;-8.642;2023-02-19T08:36:32;11.10;;;8.30;;
20000;SDS011;10161;41.188;-8.642;2023-02-19T08:38:59;12.20;;;7.77;;
20000;SDS011;10161;41.188;-8.642;2023-02-19T08:41:26;8.93;;;8.00;;
20000;SDS011;10161;41.188;-8.642;2023-02-19T08:43:53;11.17;;;8.87;;
20000;SDS011;10161;41.188;-8.642;2023-02-19T08:46:20;10.43;;;9.33;;
20000;SDS011;10161;41.188;-8.642;2023-02-19T08:48:48;11.37;;;10.23;;
20000;SDS011;10161;41.188;-8.642;2023-02-19T08:51:15;14.77;;;11.87;;
20000;SDS011;10161;41.188;-8.642;2023-02-19T08:53:44;12.50;;;11.13;;
20000;SDS011;10161;41.188;-8.642;2023-02-19T08:56:12;13.77;;;12.27;;
20000;SDS011;10161;41.188;-8.642;2023-02-19T08:58:41;13.63;;;12.23;;
20000;SDS011;10161;41.188;-8.642;2023-02-19T09:01:09;11.37;;;8.70;;
20000;SDS011;10161;41.188;-8.642;2023-02-19T09:03:38;9.20;;;8.00;;
20000;SDS011;10161;41.188;-8.642;2023-02-19T09:06:05;9.80;;;7.50;;
20000;SDS011;10161;41.188;-8.642;2023-02-19T09:08:32;12.03;;;7.67;;
20000;SDS011;10161;41.188;-8.642;2023-02-19T09:11:02;10.20;;;8.03;;
20000;SDS011;10161;41.188;-8.642;2023-02-19T09:13:31;13.57;;;11.20;;
20000;SDS011;10161;41.188;-8.642;2023-02-19T09:15:58;15.77;;;12.50;;
20000;SDS011;10161;41.188;-8.642;2023-02-19T09:18:25;12.40;;;9.50;;
20000;SDS011;10161;41.188;-8.642;2023-02-19T09:20:53;11.97;;;8.30;;
20000;SDS011;10161;41.188;-8.642;2023-02-19T09:23:21;12.90;;;8.70;;
20000;SDS011;10161;41.188;-8.642;2023-02-19T09:25:49;12.20;;;7.90;;
20000;SDS011;10161;41.188;-8.642;2023-02-19T09:28:24;13.00;;;7.33;;
20000;SDS011;10161;41.188;-8.642;2023-02-19T09:30:51;10.77;;;7.40;;
20000;SDS011;10161;41.188;-8.642;2023-02-19T09:33:18;8.47;;;6.57;;
20000;SDS011;10161;41.188;-8.642;2023-02-19T09:35:45;7.90;;;6.20;;
20000;SDS011;10161;41.188;-8.642;2023-02-19T09:38:12;9.33;;;7.10;;
20000;SDS011;10161;41.188;-8.642;2023-02-19T09:40:39;8.97;;;6.00;;
20000;SDS011;10161;41.188;-8.642;2023-02-19T09:43:07;10.30;;;6.97;;
20000;SDS011;10161;41.188;-8.642;2023-02-19T09:45:47;10.17;;;6.73;;
20000;SDS011;10161;41.188;-8.642;2023-02-19T09:48:14;10.37;;;7.50;;
20000;SDS011;10161;41.188;-8.642;2023-02-19T09:50:44;10.37;;;7.10;;
20000;SDS011;10161;41.188;-8.642;2023-02-19T09:53:13;11.27;;;6.87;;
20000;SDS011;10161;41.188;-8.642;2023-02-19T09:55:44;12.67;;;7.30;;
20000;SDS011;10161;41.188;-8.642;2023-02-19T09:58:20;8.60;;;6.33;;
20000;SDS011;10161;41.188;-8.642;2023-02-19T10:00:53;11.07;;;7.10;;
20000;SDS011;10161;41.188;-8.642;2023-02-19T10:03:22;9.90;;;6.77;;
20000;SDS011;10161;41.188;-8.642;2023-02-19T10:05:55;7.93;;;6.47;;
20000;SDS011;10161;41.188;-8.642;2023-02-19T10:08:23;10.50;;;6.97;;
20000;SDS011;10161;41.188;-8.642;2023-02-19T10:10:50;8.03;;;6.50;;
20000;SDS011;10161;41.188;-8.642;2023-02-19T10:13:19;9.30;;;7.20;;
20000;SDS011;10161;41.188;-8.642;2023-02-19T10:15:48;10.10;;;6.10;;
20000;SDS011;10161;41.188;-8.642;2023-02-19T10:18:18;8.07;;;6.63;;
20000;SDS011;10161;41.188;-8.642;2023-02-19T10:20:47;10.43;;;7.00;;
20000;SDS011;10161;41.188;-8.642;2023-02-19T10:23:15;10.03;;;6.50;;
20000;SDS011;10161;41.188;-8.642;2023-02-19T10:25:44;9.90;;;7.10;;
20000;SDS011;10161;41.188;-8.642;2023-02-19T10:28:14;8.17;;;7.07;;
20000;SDS011;10161;41.188;-8.642;2023-02-19T10:30:44;10.57;;;7.40;;
20000;SDS011;10161;41.188;-8.642;2023-02-19T10:33:14;8.63;;;6.63;;
20000;SDS011;10161;41.188;-8.642;2023-02-19T10:38:29;12.17;;;8.07;;
20000;SDS011;10161;41.188;-8.642;2023-02-19T10:40:59;11.03;;;7.90;;
20000;SDS011;10161;41.188;-8.642;2023-02-19T10:43:30;10.97;;;7.70;;
20000;SDS011;10161;41.188;-8.642;2023-02-19T10:46:00;7.93;;;6.90;;
20000;SDS011;10161;41.188;-8.642;2023-02-19T10:48:29;9.17;;;6.83;;
20000;SDS011;10161;41.188;-8.642;2023-02-19T10:50:59;13.00;;;7.73;;
20000;SDS011;10161;41.188;-8.642;2023-02-19T10:56:13;11.07;;;8.43;;
20000;SDS011;10161;41.188;-8.642;2023-02-19T10:58:41;9.83;;;7.27;;
20000;SDS011;10161;41.188;-8.642;2023-02-19T11:01:19;13.23;;;7.93;;
20000;SDS011;10161;41.188;-8.642;2023-02-19T11:03:49;10.77;;;6.53;;
20000;SDS011;10161;41.188;-8.642;2023-02-19T11:06:18;9.23;;;6.53;;
20000;SDS011;10161;41.188;-8.642;2023-02-19T11:08:48;12.43;;;7.50;;
20000;SDS011;10161;41.188;-8.642;2023-02-19T11:11:21;9.97;;;6.90;;
20000;SDS011;10161;41.188;-8.642;2023-02-19T11:13:59;8.40;;;6.60;;
20000;SDS011;10161;41.188;-8.642;2023-02-19T11:16:37;10.33;;;6.90;;
20000;SDS011;10161;41.188;-8.642;2023-02-19T11:19:18;9.17;;;6.10;;
20000;SDS011;10161;41.188;-8.642;2023-02-19T11:21:50;8.33;;;6.50;;
20000;SDS011;10161;41.188;-8.642;2023-02-19T11:24:22;7.33;;;5.67;;
20000;SDS011;10161;41.188;-8.642;2023-02-19T11:26:55;9.50;;;6.80;;
20000;SDS011;10161;41.188;-8.642;2023-02-19T11:29:22;8.20;;;6.43;;
20000;SDS011;10161;41.188;-8.642;2023-02-19T11:31:52;6.90;;;6.07;;
20000;SDS011;10161;41.188;-8.642;2023-02-19T11:34:27;8.03;;;6.27;;
20000;SDS011;10161;41.188;-8.642;2023-02-19T11:37:10;9.33;;;6.20;;
20000;SDS011;10161;41.188;-8.642;2023-02-19T11:39:49;7.97;;;5.83;;
20000;SDS011;10161;41.188;-8.642;2023-02-19T11:42:27;7.53;;;5.47;;
20000;SDS011;10161;41.188;-8.642;2023-02-19T11:47:59;6.97;;;5.57;;
20000;SDS011;10161;41.188;-8.642;2023-02-19T11:50:37;6.37;;;5.10;;
20000;SDS011;10161;41.188;-8.642;2023-02-19T11:53:14;7.40;;;5.30;;
20000;SDS011;10161;41.188;-8.642;2023-02-19T11:55:48;8.63;;;5.87;;
20000;SDS011;10161;41.188;-8.642;2023-02-19T11:58:28;7.87;;;5.77;;
20000;SDS011;10161;41.188;-8.642;2023-02-19T12:01:12;5.87;;;5.27;;
20000;SDS011;10161;41.188;-8.642;2023-02-19T12:03:48;9.20;;;5.03;;
20000;SDS011;10161;41.188;-8.642;2023-02-19T12:06:35;7.30;;;5.60;;
20000;SDS011;10161;41.188;-8.642;2023-02-19T12:09:15;6.13;;;4.80;;
20000;SDS011;10161;41.188;-8.642;2023-02-19T12:11:55;9.00;;;6.20;;
20000;SDS011;10161;41.188;-8.642;2023-02-19T12:17:22;7.50;;;5.90;;
20000;SDS011;10161;41.188;-8.642;2023-02-19T12:20:01;8.50;;;5.73;;
20000;SDS011;10161;41.188;-8.642;2023-02-19T12:22:37;8.90;;;5.70;;
20000;SDS011;10161;41.188;-8.642;2023-02-19T12:25:14;10.67;;;6.10;;
20000;SDS011;10161;41.188;-8.642;2023-02-19T12:27:57;10.33;;;6.27;;
20000;SDS011;10161;41.188;-8.642;2023-02-19T12:30:50;8.17;;;5.27;;
20000;SDS011;10161;41.188;-8.642;2023-02-19T12:36:26;8.60;;;6.43;;
20000;SDS011;10161;41.188;-8.642;2023-02-19T12:39:00;6.80;;;5.97;;
20000;SDS011;10161;41.188;-8.642;2023-02-19T12:41:35;6.60;;;5.50;;
20000;SDS011;10161;41.188;-8.642;2023-02-19T12:44:10;9.03;;;5.30;;
20000;SDS011;10161;41.188;-8.642;2023-02-19T12:46:40;7.90;;;5.20;;
20000;SDS011;10161;41.188;-8.642;2023-02-19T12:49:10;9.47;;;5.30;;
20000;SDS011;10161;41.188;-8.642;2023-02-19T12:51:40;7.10;;;5.00;;
20000;SDS011;10161;41.188;-8.642;2023-02-19T12:54:11;7.17;;;5.10;;
20000;SDS011;10161;41.188;-8.642;2023-02-19T12:56:43;11.53;;;5.20;;
20000;SDS011;10161;41.188;-8.642;2023-02-19T12:59:15;9.43;;;4.53;;
20000;SDS011;10161;41.188;-8.642;2023-02-19T13:01:51;8.27;;;5.20;;
20000;SDS011;10161;41.188;-8.642;2023-02-19T13:04:25;8.17;;;4.50;;
20000;SDS011;10161;41.188;-8.642;2023-02-19T13:06:56;9.50;;;6.20;;
20000;SDS011;10161;41.188;-8.642;2023-02-19T13:09:28;6.40;;;5.37;;
20000;SDS011;10161;41.188;-8.642;2023-02-19T13:11:58;8.83;;;5.63;;
20000;SDS011;10161;41.188;-8.642;2023-02-19T13:14:29;10.80;;;4.80;;
20000;SDS011;10161;41.188;-8.642;2023-02-19T13:16:59;8.37;;;4.83;;
20000;SDS011;10161;41.188;-8.642;2023-02-19T13:19:30;10.90;;;5.27;;
20000;SDS011;10161;41.188;-8.642;2023-02-19T13:22:01;9.03;;;4.57;;
20000;SDS011;10161;41.188;-8.642;2023-02-19T13:24:47;10.30;;;5.00;;
20000;SDS011;10161;41.188;-8.642;2023-02-19T13:27:24;8.83;;;4.90;;
20000;SDS011;10161;41.188;-8.642;2023-02-19T13:30:07;6.00;;;4.10;;
20000;SDS011;10161;41.188;-8.642;2023-02-19T13:32:49;6.00;;;4.07;;
20000;SDS011;10161;41.188;-8.642;2023-02-19T13:35:24;6.07;;;4.20;;
20000;SDS011;10161;41.188;-8.642;2023-02-19T13:37:53;8.60;;;3.67;;
20000;SDS011;10161;41.188;-8.642;2023-02-19T13:40:24;7.90;;;3.57;;
20000;SDS011;10161;41.188;-8.642;2023-02-19T13:42:53;6.23;;;3.57;;
20000;SDS011;10161;41.188;-8.642;2023-02-19T13:45:25;6.43;;;3.73;;
20000;SDS011;10161;41.188;-8.642;2023-02-19T13:48:01;6.40;;;3.80;;
20000;SDS011;10161;41.188;-8.642;2023-02-19T13:50:39;7.80;;;4.13;;
20000;SDS011;10161;41.188;-8.642;2023-02-19T13:56:34;7.90;;;4.10;;
20000;SDS011;10161;41.188;-8.642;2023-02-19T13:59:21;7.90;;;4.43;;
20000;SDS011;10161;41.188;-8.642;2023-02-19T14:04:55;7.73;;;5.07;;
20000;SDS011;10161;41.188;-8.642;2023-02-19T14:16:28;4.40;;;4.00;;
20000;SDS011;10161;41.188;-8.642;2023-02-19T14:18:56;4.97;;;3.80;;
20000;SDS011;10161;41.188;-8.642;2023-02-19T14:21:25;6.33;;;4.23;;
20000;SDS011;10161;41.188;-8.642;2023-02-19T14:24:00;6.23;;;4.07;;
20000;SDS011;10161;41.188;-8.642;2023-02-19T14:26:29;5.80;;;4.23;;
20000;SDS011;10161;41.188;-8.642;2023-02-19T14:28:57;9.93;;;4.27;;
20000;SDS011;10161;41.188;-8.642;2023-02-19T14:31:26;8.57;;;4.60;;
20000;SDS011;10161;41.188;-8.642;2023-02-19T14:33:54;9.33;;;4.80;;
20000;SDS011;10161;41.188;-8.642;2023-02-19T14:36:41;6.63;;;3.90;;
20000;SDS011;10161;41.188;-8.642;2023-02-19T14:39:11;6.83;;;4.27;;
20000;SDS011;10161;41.188;-8.642;2023-02-19T14:41:40;7.87;;;4.63;;
20000;SDS011;10161;41.188;-8.642;2023-02-19T14:44:12;11.03;;;4.13;;
20000;SDS011;10161;41.188;-8.642;2023-02-19T14:46:44;6.77;;;4.23;;
20000;SDS011;10161;41.188;-8.642;2023-02-19T14:49:17;7.43;;;4.13;;
20000;SDS011;10161;41.188;-8.642;2023-02-19T14:51:49;7.20;;;4.10;;
20000;SDS011;10161;41.188;-8.642;2023-02-19T14:54:18;7.70;;;5.00;;
20000;SDS011;10161;41.188;-8.642;2023-02-19T14:56:48;11.53;;;4.30;;
20000;SDS011;10161;41.188;-8.642;2023-02-19T14:59:26;6.20;;;3.97;;
20000;SDS011;10161;41.188;-8.642;2023-02-19T15:01:54;7.67;;;4.20;;
20000;SDS011;10161;41.188;-8.642;2023-02-19T15:04:23;7.30;;;4.37;;
20000;SDS011;10161;41.188;-8.642;2023-02-19T15:06:52;7.47;;;4.30;;
20000;SDS011;10161;41.188;-8.642;2023-02-19T15:09:21;5.10;;;3.43;;
20000;SDS011;10161;41.188;-8.642;2023-02-19T15:11:51;5.30;;;3.93;;
20000;SDS011;10161;41.188;-8.642;2023-02-19T15:14:20;7.30;;;4.47;;
20000;SDS011;10161;41.188;-8.642;2023-02-19T15:16:47;8.20;;;4.53;;
20000;SDS011;10161;41.188;-8.642;2023-02-19T15:19:16;6.90;;;4.20;;